Time;durP1;ratioP1;P1;durP2;ratioP2;P2;SDS_P1;SDS_P2;PMS_P1;PMS_P2;Temp;Humidity;BMP_temperature;BMP_pressure;BME280_temperature;BME280_humidity;BME280_pressure;Samples;Min_cycle;Max_cycle;Signal;HPM_P1;HPM_P2
2022/03/02 00:00:10;;;;;;;6.57;5.32;;;;;;;;;;5032793;28;20045;-70
2022/03/02 00:02:37;;;;;;;7.28;5.10;;;;;;;;;;5032461;28;20045;-71
2022/03/02 00:05:05;;;;;;;6.55;5.40;;;;;;;;;;5032101;28;20038;-71
2022/03/02 00:07:33;;;;;;;7.47;5.25;;;;;;;;;;5032293;28;20121;-70
2022/03/02 00:10:01;;;;;;;7.35;5.60;;;;;;;;;;5032344;28;20048;-72
2022/03/02 00:12:30;;;;;;;7.68;5.30;;;;;;;;;;5032765;28;20456;-72
2022/03/02 00:15:02;;;;;;;;;;;;;;;;;;5032844;28;20497;-72
2022/03/02 00:17:32;;;;;;;6.55;4.82;;;;;;;;;;5032111;28;20347;-70
2022/03/02 00:20:04;;;;;;;8.75;5.38;;;;;;;;;;5014839;28;20485;-72
2022/03/02 00:22:31;;;;;;;6.60;4.90;;;;;;;;;;5032092;28;20512;-71
2022/03/02 00:24:59;;;;;;;6.25;5.20;;;;;;;;;;5030760;28;20425;-72
2022/03/02 00:27:26;;;;;;;6.40;5.22;;;;;;;;;;5031930;28;20042;-73
2022/03/02 00:29:54;;;;;;;8.38;4.72;;;;;;;;;;5031971;28;20041;-73
2022/03/02 00:32:25;;;;;;;5.10;4.10;;;;;;;;;;5031131;28;20474;-70
2022/03/02 00:34:52;;;;;;;6.25;4.50;;;;;;;;;;5032139;28;20047;-71
2022/03/02 00:37:20;;;;;;;4.88;4.28;;;;;;;;;;5032145;28;20228;-72
2022/03/02 00:39:47;;;;;;;5.65;4.53;;;;;;;;;;5032916;28;20051;-70
2022/03/02 00:42:15;;;;;;;6.95;4.47;;;;;;;;;;5035866;28;20050;-73
2022/03/02 00:44:43;;;;;;;6.53;4.95;;;;;;;;;;5035720;28;20045;-71
2022/03/02 00:47:11;;;;;;;5.68;4.60;;;;;;;;;;5036039;28;20121;-72
2022/03/02 00:49:39;;;;;;;4.85;4.32;;;;;;;;;;5035881;28;20061;-72
2022/03/02 00:52:11;;;;;;;6.35;5.00;;;;;;;;;;5035394;28;20595;-70
2022/03/02 00:54:38;;;;;;;6.28;4.00;;;;;;;;;;5035208;28;20471;-72
2022/03/02 00:57:06;;;;;;;4.20;3.80;;;;;;;;;;5035624;28;20080;-72
2022/03/02 00:59:33;;;;;;;7.55;4.20;;;;;;;;;;5034046;28;20464;-73
2022/03/02 01:02:01;;;;;;;5.63;4.18;;;;;;;;;;5035583;28;20384;-73
2022/03/02 01:04:29;;;;;;;4.60;3.95;;;;;;;;;;5035115;28;20042;-72
2022/03/02 01:06:57;;;;;;;3.85;3.53;;;;;;;;;;5035772;28;20042;-73
2022/03/02 01:09:24;;;;;;;4.65;3.92;;;;;;;;;;5035139;28;20365;-72
2022/03/02 01:11:54;;;;;;;3.92;3.58;;;;;;;;;;5035138;28;20049;-72
2022/03/02 01:14:22;;;;;;;3.83;3.40;;;;;;;;;;5035295;28;20405;-72
2022/03/02 01:16:50;;;;;;;4.13;3.50;;;;;;;;;;5033690;28;20140;-70
2022/03/02 01:19:17;;;;;;;6.53;3.78;;;;;;;;;;5035414;28;20384;-71
2022/03/02 01:21:46;;;;;;;4.90;4.07;;;;;;;;;;5035303;28;20136;-72
2022/03/02 01:24:14;;;;;;;5.25;3.90;;;;;;;;;;5035372;28;20049;-72
2022/03/02 01:26:44;;;;;;;4.78;3.90;;;;;;;;;;5035389;28;20049;-71
2022/03/02 01:29:11;;;;;;;5.40;4.05;;;;;;;;;;5033562;28;20408;-73
2022/03/02 01:31:39;;;;;;;4.95;4.38;;;;;;;;;;5035137;28;20046;-72
2022/03/02 01:34:07;;;;;;;4.82;3.88;;;;;;;;;;5034863;28;20385;-70
2022/03/02 01:36:34;;;;;;;4.93;3.90;;;;;;;;;;5034926;28;20045;-71
2022/03/02 01:39:04;;;;;;;6.40;4.50;;;;;;;;;;5034824;28;20049;-72
2022/03/02 01:41:31;;;;;;;4.80;3.78;;;;;;;;;;5033010;28;20046;-71
2022/03/02 01:43:59;;;;;;;5.20;4.18;;;;;;;;;;5034822;28;20393;-72
2022/03/02 01:46:26;;;;;;;5.85;3.92;;;;;;;;;;5034583;28;20095;-73
2022/03/02 01:48:57;;;;;;;6.88;4.00;;;;;;;;;;5034928;28;20053;-72
2022/03/02 01:51:25;;;;;;;4.20;3.70;;;;;;;;;;5034533;28;20095;-71
2022/03/02 01:53:53;;;;;;;4.63;3.75;;;;;;;;;;5032508;28;20476;-72
2022/03/02 01:56:20;;;;;;;3.95;3.55;;;;;;;;;;5034607;28;20124;-73
2022/03/02 01:58:48;;;;;;;4.22;3.63;;;;;;;;;;5034380;28;20045;-73
2022/03/02 02:01:16;;;;;;;5.28;3.72;;;;;;;;;;5033033;28;20087;-71
2022/03/02 02:03:44;;;;;;;4.50;3.80;;;;;;;;;;5034193;28;20061;-70
2022/03/02 02:06:13;;;;;;;4.95;4.18;;;;;;;;;;5033853;28;20048;-70
2022/03/02 02:08:42;;;;;;;3.65;3.35;;;;;;;;;;5034231;28;20041;-70
2022/03/02 02:11:11;;;;;;;5.05;3.47;;;;;;;;;;5034359;28;20040;-72
2022/03/02 02:13:38;;;;;;;6.85;4.07;;;;;;;;;;5032578;28;20115;-72
2022/03/02 02:16:06;;;;;;;6.00;4.22;;;;;;;;;;5033972;28;20048;-73
2022/03/02 02:18:35;;;;;;;7.22;4.13;;;;;;;;;;5034069;28;20050;-73
2022/03/02 02:21:07;;;;;;;7.60;4.07;;;;;;;;;;5033868;28;20513;-72
2022/03/02 02:23:35;;;;;;;4.82;4.10;;;;;;;;;;5032893;28;20045;-72
2022/03/02 02:26:03;;;;;;;7.03;4.47;;;;;;;;;;5032934;28;20037;-70
2022/03/02 02:28:31;;;;;;;8.63;4.55;;;;;;;;;;5032541;28;20041;-73
2022/03/02 02:31:00;;;;;;;8.13;4.30;;;;;;;;;;5033746;28;20041;-73
2022/03/02 02:33:28;;;;;;;6.57;4.15;;;;;;;;;;5033589;28;20061;-73
2022/03/02 02:35:56;;;;;;;5.60;4.03;;;;;;;;;;5032352;28;20056;-73
2022/03/02 02:38:26;;;;;;;5.15;3.90;;;;;;;;;;5033677;28;20426;-72
2022/03/02 02:40:53;;;;;;;3.88;3.42;;;;;;;;;;5033462;28;20041;-72
2022/03/02 02:43:22;;;;;;;4.38;3.70;;;;;;;;;;5032223;28;20068;-73
2022/03/02 02:45:54;;;;;;;4.35;3.42;;;;;;;;;;5033609;28;20117;-73
2022/03/02 02:48:23;;;;;;;3.50;3.20;;;;;;;;;;5033784;28;20091;-72
2022/03/02 02:50:52;;;;;;;5.25;3.53;;;;;;;;;;5033824;28;20053;-70
2022/03/02 02:53:19;;;;;;;5.90;3.65;;;;;;;;;;5033090;28;20040;-72
2022/03/02 02:55:50;;;;;;;5.15;4.13;;;;;;;;;;5033192;28;20103;-72
2022/03/02 02:58:18;;;;;;;4.10;3.70;;;;;;;;;;5033183;28;20124;-70
2022/03/02 03:00:49;;;;;;;7.30;5.18;;;;;;;;;;5033432;28;20048;-70
2022/03/02 03:03:19;;;;;;;6.43;4.75;;;;;;;;;;5032269;28;20115;-72
2022/03/02 03:05:48;;;;;;;5.82;4.82;;;;;;;;;;5031508;28;20049;-72
2022/03/02 03:08:15;;;;;;;5.82;4.25;;;;;;;;;;5031943;28;20041;-73
2022/03/02 03:10:45;;;;;;;4.22;3.53;;;;;;;;;;5033268;28;20034;-73
2022/03/02 03:13:15;;;;;;;4.90;3.47;;;;;;;;;;5033012;28;20042;-73
2022/03/02 03:15:44;;;;;;;5.70;3.88;;;;;;;;;;5033319;28;20064;-72
2022/03/02 03:18:13;;;;;;;5.43;4.22;;;;;;;;;;5031421;28;20390;-72
2022/03/02 03:20:40;;;;;;;5.70;3.60;;;;;;;;;;5033260;28;20053;-71
2022/03/02 03:23:08;;;;;;;5.53;3.80;;;;;;;;;;5032864;28;20128;-73
2022/03/02 03:25:37;;;;;;;5.00;3.72;;;;;;;;;;5033270;28;20052;-72
2022/03/02 03:28:05;;;;;;;6.47;3.95;;;;;;;;;;5033001;28;20042;-73
2022/03/02 03:30:33;;;;;;;5.93;3.50;;;;;;;;;;5031561;28;20045;-72
2022/03/02 03:33:04;;;;;;;3.72;3.30;;;;;;;;;;5033006;28;20046;-70
2022/03/02 03:35:32;;;;;;;5.22;3.47;;;;;;;;;;5032827;28;20497;-71
2022/03/02 03:38:01;;;;;;;4.80;3.63;;;;;;;;;;5033172;28;20045;-72
2022/03/02 03:40:29;;;;;;;7.47;3.30;;;;;;;;;;5032517;28;20488;-72
2022/03/02 03:42:57;;;;;;;2.65;2.28;;;;;;;;;;5032705;28;20047;-71
2022/03/02 03:45:25;;;;;;;3.25;2.30;;;;;;;;;;5032781;28;20400;-72
2022/03/02 03:47:53;;;;;;;4.20;2.67;;;;;;;;;;5032839;28;20164;-71
2022/03/02 03:50:22;;;;;;;3.63;3.08;;;;;;;;;;5032652;28;20030;-71
2022/03/02 03:52:49;;;;;;;3.35;2.72;;;;;;;;;;5032437;28;20042;-71
2022/03/02 03:55:17;;;;;;;4.38;3.25;;;;;;;;;;5032439;28;20037;-72
2022/03/02 03:57:45;;;;;;;3.30;3.00;;;;;;;;;;5032474;28;20061;-70
2022/03/02 04:00:14;;;;;;;3.75;2.88;;;;;;;;;;5032779;28;20056;-70
2022/03/02 04:02:43;;;;;;;3.95;3.17;;;;;;;;;;5031204;28;20046;-72
2022/03/02 04:05:11;;;;;;;5.60;3.10;;;;;;;;;;5032427;28;20056;-70
2022/03/02 04:07:44;;;;;;;5.07;3.00;;;;;;;;;;5033205;28;20056;-72
2022/03/02 04:10:13;;;;;;;7.28;3.10;;;;;;;;;;5032563;28;20082;-70
2022/03/02 04:12:45;;;;;;;4.70;3.25;;;;;;;;;;5032239;28;20041;-72
2022/03/02 04:15:13;;;;;;;3.45;2.90;;;;;;;;;;5033964;28;20038;-70
2022/03/02 04:17:41;;;;;;;4.22;2.70;;;;;;;;;;5035925;28;20041;-73
2022/03/02 04:20:10;;;;;;;3.15;2.85;;;;;;;;;;5034935;28;20098;-73
2022/03/02 04:22:37;;;;;;;6.00;3.10;;;;;;;;;;5034925;28;20143;-72
2022/03/02 04:25:05;;;;;;;3.22;2.65;;;;;;;;;;5035202;28;20400;-72
2022/03/02 04:27:33;;;;;;;5.50;3.00;;;;;;;;;;5035766;28;20623;-73
2022/03/02 04:30:01;;;;;;;5.97;3.00;;;;;;;;;;5036119;28;20029;-72
2022/03/02 04:32:30;;;;;;;5.50;3.00;;;;;;;;;;5035977;28;20056;-71
2022/03/02 04:34:58;;;;;;;2.60;2.40;;;;;;;;;;5036001;28;20041;-71
2022/03/02 04:37:26;;;;;;;3.90;2.55;;;;;;;;;;5036029;28;20045;-72
2022/03/02 04:39:54;;;;;;;2.72;2.47;;;;;;;;;;5036134;28;20041;-71
2022/03/02 04:42:22;;;;;;;3.42;2.40;;;;;;;;;;5035303;28;20053;-72
2022/03/02 04:44:50;;;;;;;2.63;2.42;;;;;;;;;;5036179;28;20461;-72
2022/03/02 04:47:17;;;;;;;6.15;3.60;;;;;;;;;;5035780;28;20042;-72
2022/03/02 04:49:45;;;;;;;4.55;3.33;;;;;;;;;;5035983;28;20120;-71
2022/03/02 04:52:14;;;;;;;4.65;3.10;;;;;;;;;;5035619;28;20045;-72
2022/03/02 04:57:28;;;;;;;3.00;2.72;;;;;;;;;;5035283;28;20408;-72
2022/03/02 04:59:55;;;;;;;4.32;2.80;;;;;;;;;;5035628;28;20042;-72
2022/03/02 05:02:25;;;;;;;3.53;2.60;;;;;;;;;;5035322;28;20057;-72
2022/03/02 05:04:53;;;;;;;3.80;2.72;;;;;;;;;;5035042;28;20041;-72
2022/03/02 05:07:21;;;;;;;4.22;2.88;;;;;;;;;;5035424;28;20038;-70
2022/03/02 05:09:49;;;;;;;5.20;2.70;;;;;;;;;;5035305;28;20044;-71
2022/03/02 05:12:16;;;;;;;2.83;2.55;;;;;;;;;;5035036;28;20049;-72
2022/03/02 05:14:44;;;;;;;4.97;2.90;;;;;;;;;;5034186;28;20045;-72
2022/03/02 05:17:11;;;;;;;6.55;3.03;;;;;;;;;;5034995;28;20124;-72
2022/03/02 05:19:41;;;;;;;2.85;2.63;;;;;;;;;;5035565;28;20389;-73
2022/03/02 05:22:09;;;;;;;3.47;2.95;;;;;;;;;;5035075;28;20045;-73
2022/03/02 05:24:37;;;;;;;5.22;3.17;;;;;;;;;;5035203;28;20136;-72
2022/03/02 05:27:07;;;;;;;4.57;3.00;;;;;;;;;;5034615;28;20051;-72
2022/03/02 05:29:36;;;;;;;5.65;3.30;;;;;;;;;;5034884;28;20033;-73
2022/03/02 05:32:04;;;;;;;4.30;3.25;;;;;;;;;;5035039;28;20037;-71
2022/03/02 05:34:32;;;;;;;5.78;3.03;;;;;;;;;;5034768;28;20046;-72
2022/03/02 05:36:59;;;;;;;9.18;3.70;;;;;;;;;;5034900;28;20077;-70
2022/03/02 05:39:29;;;;;;;5.38;3.35;;;;;;;;;;5033421;28;20045;-73
2022/03/02 05:41:56;;;;;;;4.50;3.38;;;;;;;;;;5034383;28;20045;-72
2022/03/02 05:44:26;;;;;;;5.85;3.42;;;;;;;;;;5034584;28;20048;-72
2022/03/02 05:46:53;;;;;;;5.68;3.80;;;;;;;;;;5034454;28;20108;-73
2022/03/02 05:49:21;;;;;;;7.55;4.03;;;;;;;;;;5034410;28;20116;-72
2022/03/02 05:51:48;;;;;;;5.00;3.70;;;;;;;;;;5032871;28;20088;-73
2022/03/02 05:54:16;;;;;;;4.53;3.47;;;;;;;;;;5033048;28;20033;-73
2022/03/02 05:56:44;;;;;;;5.88;4.22;;;;;;;;;;5033805;28;20037;-70
2022/03/02 05:59:14;;;;;;;4.78;3.58;;;;;;;;;;5034478;28;20037;-70
2022/03/02 06:01:41;;;;;;;4.45;3.80;;;;;;;;;;5020890;28;20377;-72
2022/03/02 06:04:10;;;;;;;5.45;3.85;;;;;;;;;;5014984;28;20445;-72
2022/03/02 06:06:39;;;;;;;4.53;3.55;;;;;;;;;;5027421;28;20069;-73
2022/03/02 06:09:08;;;;;;;7.43;4.03;;;;;;;;;;5034140;28;20049;-73
2022/03/02 06:11:39;;;;;;;6.00;4.20;;;;;;;;;;5034017;28;20076;-71
2022/03/02 06:14:08;;;;;;;6.32;3.90;;;;;;;;;;5032811;28;20068;-70
2022/03/02 06:16:41;;;;;;;5.07;3.30;;;;;;;;;;5033934;28;20061;-70
2022/03/02 06:19:10;;;;;;;6.97;3.13;;;;;;;;;;5033990;28;20500;-70
2022/03/02 06:21:40;;;;;;;5.25;3.10;;;;;;;;;;5027929;28;20453;-71
2022/03/02 06:24:09;;;;;;;4.75;3.30;;;;;;;;;;5015832;28;20041;-70
2022/03/02 06:26:36;;;;;;;4.78;3.58;;;;;;;;;;5013902;28;20057;-70
2022/03/02 06:29:04;;;;;;;5.15;3.80;;;;;;;;;;5023455;28;20501;-69
2022/03/02 06:31:33;;;;;;;6.82;3.60;;;;;;;;;;5032165;28;20045;-70
2022/03/02 06:34:05;;;;;;;5.30;3.50;;;;;;;;;;5032792;28;20037;-69
2022/03/02 06:36:32;;;;;;;4.22;3.15;;;;;;;;;;5031021;28;20038;-71
2022/03/02 06:39:00;;;;;;;8.95;3.42;;;;;;;;;;5032661;28;20041;-71
2022/03/02 06:41:37;;;;;;;5.97;2.97;;;;;;;;;;5031891;28;20038;-70
2022/03/02 06:44:06;;;;;;;6.68;3.00;;;;;;;;;;5033033;28;20073;-71
2022/03/02 06:46:44;;;;;;;4.32;3.13;;;;;;;;;;5033438;28;20508;-70
2022/03/02 06:49:16;;;;;;;3.22;2.92;;;;;;;;;;5033388;28;20040;-70
2022/03/02 06:51:47;;;;;;;5.65;2.80;;;;;;;;;;5033422;28;20042;-71
2022/03/02 06:54:18;;;;;;;5.10;2.85;;;;;;;;;;5033209;28;20116;-71
2022/03/02 06:56:50;;;;;;;12.23;3.47;;;;;;;;;;5033301;28;20041;-69
2022/03/02 06:59:26;;;;;;;3.25;2.88;;;;;;;;;;5032374;28;20049;-71
2022/03/02 07:01:55;;;;;;;7.80;3.33;;;;;;;;;;5033279;28;20049;-71
2022/03/02 07:04:23;;;;;;;8.75;4.22;;;;;;;;;;5032909;28;20056;-71
2022/03/02 07:06:52;;;;;;;5.10;3.35;;;;;;;;;;5033108;28;20041;-71
2022/03/02 07:09:20;;;;;;;7.07;3.13;;;;;;;;;;5033011;28;20043;-71
2022/03/02 07:11:50;;;;;;;5.30;3.47;;;;;;;;;;5032947;28;20156;-72
2022/03/02 07:14:17;;;;;;;3.47;2.47;;;;;;;;;;5032768;28;20045;-69
2022/03/02 07:16:46;;;;;;;5.97;2.92;;;;;;;;;;5032534;28;20049;-69
2022/03/02 07:19:13;;;;;;;5.90;3.00;;;;;;;;;;5033166;28;20071;-70
2022/03/02 07:21:45;;;;;;;5.88;2.90;;;;;;;;;;5027125;22;20462;-74
2022/03/02 07:24:17;;;;;;;6.05;3.78;;;;;;;;;;5008207;28;20042;-72
2022/03/02 07:26:46;;;;;;;4.53;2.67;;;;;;;;;;5008441;28;20045;-72
2022/03/02 07:29:15;;;;;;;3.78;3.30;;;;;;;;;;4993032;28;20039;-72
2022/03/02 07:31:43;;;;;;;4.03;2.45;;;;;;;;;;4993174;28;20124;-72
2022/03/02 07:34:16;;;;;;;4.80;2.80;;;;;;;;;;4992968;28;20054;-73
2022/03/02 07:36:45;;;;;;;7.30;3.38;;;;;;;;;;4993051;28;20049;-74
2022/03/02 07:39:17;;;;;;;5.25;3.30;;;;;;;;;;4993344;28;20045;-73
2022/03/02 07:41:49;;;;;;;5.75;3.08;;;;;;;;;;4992953;28;20081;-74
2022/03/02 07:44:16;;;;;;;10.38;5.05;;;;;;;;;;4993001;28;20470;-74
2022/03/02 07:46:45;;;;;;;10.93;5.30;;;;;;;;;;4993294;28;20042;-73
2022/03/02 07:49:16;;;;;;;9.07;3.83;;;;;;;;;;4976210;28;20070;-74
2022/03/02 07:51:44;;;;;;;7.88;3.47;;;;;;;;;;4996975;28;20109;-73
2022/03/02 07:54:13;;;;;;;4.68;3.15;;;;;;;;;;4996995;28;20042;-73
2022/03/02 07:56:41;;;;;;;6.72;3.03;;;;;;;;;;4979330;28;20046;-72
2022/03/02 07:59:12;;;;;;;8.18;2.75;;;;;;;;;;4997131;28;20080;-72
2022/03/02 08:01:40;;;;;;;5.15;2.58;;;;;;;;;;4997033;28;20124;-74
2022/03/02 08:04:09;;;;;;;3.30;2.47;;;;;;;;;;4997217;28;20057;-73
2022/03/02 08:06:38;;;;;;;5.45;2.58;;;;;;;;;;4996623;28;20232;-72
2022/03/02 08:09:07;;;;;;;5.50;2.85;;;;;;;;;;4997164;28;20041;-72
2022/03/02 08:11:40;;;;;;;4.70;2.72;;;;;;;;;;4996772;28;20046;-72
2022/03/02 08:14:08;;;;;;;3.10;2.42;;;;;;;;;;4996477;28;20081;-74
2022/03/02 08:16:36;;;;;;;5.07;2.67;;;;;;;;;;4996701;28;20046;-72
2022/03/02 08:19:05;;;;;;;6.13;3.05;;;;;;;;;;4996736;28;20054;-74
2022/03/02 08:21:35;;;;;;;4.88;2.67;;;;;;;;;;4975953;28;20059;-73
2022/03/02 08:24:04;;;;;;;3.13;2.75;;;;;;;;;;4977414;28;20069;-73
2022/03/02 08:26:35;;;;;;;4.25;2.80;;;;;;;;;;4977202;28;20409;-72
2022/03/02 08:29:05;;;;;;;4.40;2.75;;;;;;;;;;4977359;28;20039;-73
2022/03/02 08:31:37;;;;;;;4.47;2.25;;;;;;;;;;4976972;28;20047;-73
2022/03/02 08:34:12;;;;;;;5.30;2.83;;;;;;;;;;4977051;28;20491;-71
2022/03/02 08:36:42;;;;;;;3.50;2.47;;;;;;;;;;4976948;28;20086;-72
2022/03/02 08:39:13;;;;;;;3.45;2.22;;;;;;;;;;4977041;28;20063;-72
2022/03/02 08:41:41;;;;;;;7.53;2.80;;;;;;;;;;4976729;28;20046;-72
2022/03/02 08:44:12;;;;;;;5.25;2.40;;;;;;;;;;4976690;28;20053;-72
2022/03/02 08:46:40;;;;;;;5.53;2.70;;;;;;;;;;4977100;28;20045;-74
2022/03/02 08:49:10;;;;;;;3.30;2.88;;;;;;;;;;4975866;28;20045;-72
2022/03/02 08:51:39;;;;;;;5.05;2.95;;;;;;;;;;4976390;28;20053;-71
2022/03/02 08:54:08;;;;;;;5.47;2.70;;;;;;;;;;4976654;28;20054;-72
2022/03/02 08:56:38;;;;;;;7.25;2.50;;;;;;;;;;4976739;28;20039;-74
2022/03/02 08:59:07;;;;;;;5.10;2.50;;;;;;;;;;4976628;28;20074;-73
2022/03/02 09:01:40;;;;;;;4.10;2.60;;;;;;;;;;4975141;28;20035;-74
2022/03/02 09:04:11;;;;;;;7.57;2.50;;;;;;;;;;4975958;28;20046;-73
2022/03/02 09:06:39;;;;;;;2.88;2.33;;;;;;;;;;4976299;28;20054;-72
2022/03/02 09:09:06;;;;;;;5.15;2.90;;;;;;;;;;4975078;28;20057;-72
2022/03/02 09:11:38;;;;;;;3.38;2.50;;;;;;;;;;4974824;28;20126;-74
2022/03/02 09:14:08;;;;;;;5.67;2.47;;;;;;;;;;4976437;28;20042;-72
2022/03/02 09:16:39;;;;;;;3.38;2.20;;;;;;;;;;4976302;28;20047;-72
2022/03/02 09:19:10;;;;;;;4.07;2.17;;;;;;;;;;4976215;28;20054;-72
2022/03/02 09:21:38;;;;;;;2.97;2.40;;;;;;;;;;4985395;28;20050;-73
2022/03/02 09:24:11;;;;;;;7.55;2.40;;;;;;;;;;4995874;28;20070;-74
2022/03/02 09:26:39;;;;;;;3.35;2.20;;;;;;;;;;4995920;28;20042;-72
2022/03/02 09:29:08;;;;;;;2.45;2.15;;;;;;;;;;4995463;28;20405;-72
2022/03/02 09:31:36;;;;;;;3.45;2.40;;;;;;;;;;4995240;28;20050;-73
2022/03/02 09:34:08;;;;;;;2.50;1.70;;;;;;;;;;4977955;28;20445;-72
2022/03/02 09:36:36;;;;;;;4.75;2.40;;;;;;;;;;4995504;28;20046;-72
2022/03/02 09:39:10;;;;;;;5.53;2.20;;;;;;;;;;4995457;28;20622;-73
2022/03/02 09:41:49;;;;;;;4.32;2.58;;;;;;;;;;4995096;28;20060;-74
2022/03/02 09:44:19;;;;;;;7.47;2.67;;;;;;;;;;4995404;28;20056;-73
2022/03/02 09:46:56;;;;;;;5.45;2.60;;;;;;;;;;4977876;28;20066;-73
2022/03/02 09:49:25;;;;;;;3.42;2.10;;;;;;;;;;4995159;28;20066;-72
2022/03/02 09:51:53;;;;;;;5.03;2.40;;;;;;;;;;4995076;28;20038;-73
2022/03/02 09:54:23;;;;;;;6.15;2.42;;;;;;;;;;4977225;28;20128;-72
2022/03/02 09:56:51;;;;;;;3.10;2.30;;;;;;;;;;4995032;28;20096;-72
2022/03/02 09:59:19;;;;;;;6.68;2.25;;;;;;;;;;4994883;28;20038;-72
2022/03/02 10:01:48;;;;;;;4.90;2.40;;;;;;;;;;4994880;28;20516;-72
2022/03/02 10:04:26;;;;;;;3.83;2.38;;;;;;;;;;4994922;28;20046;-72
2022/03/02 10:07:26;;;;;;;4.65;2.50;;;;;;;;;;4994834;28;20038;-73
2022/03/02 10:09:51;;;;;;;3.85;2.40;;;;;;;;;;4994595;28;20052;-72
2022/03/02 10:12:20;;;;;;;5.57;2.80;;;;;;;;;;4993202;28;20042;-72
2022/03/02 10:14:53;;;;;;;5.35;2.40;;;;;;;;;;4977069;28;20057;-72
2022/03/02 10:17:22;;;;;;;7.05;2.70;;;;;;;;;;4994531;28;20867;-72
2022/03/02 10:19:55;;;;;;;2.67;2.30;;;;;;;;;;4994435;28;20410;-72
2022/03/02 10:22:40;;;;;;;5.82;2.53;;;;;;;;;;4994323;28;20141;-71
2022/03/02 10:25:08;;;;;;;4.95;2.33;;;;;;;;;;4994324;28;20564;-72
2022/03/02 10:27:43;;;;;;;3.00;2.35;;;;;;;;;;4994615;28;20105;-71
2022/03/02 10:30:11;;;;;;;6.53;2.53;;;;;;;;;;4976582;28;20378;-72
2022/03/02 10:32:41;;;;;;;2.75;2.42;;;;;;;;;;4994079;28;20043;-72
2022/03/02 10:35:10;;;;;;;3.05;2.50;;;;;;;;;;4994186;28;20047;-73
2022/03/02 10:37:41;;;;;;;3.80;2.45;;;;;;;;;;4994238;28;20125;-72
2022/03/02 10:40:15;;;;;;;3.83;2.50;;;;;;;;;;4994218;28;20047;-71
2022/03/02 10:42:43;;;;;;;5.28;2.60;;;;;;;;;;4975723;28;20502;-73
2022/03/02 10:45:22;;;;;;;2.65;2.20;;;;;;;;;;4993785;28;20062;-71
2022/03/02 10:47:53;;;;;;;3.17;2.22;;;;;;;;;;4994039;28;20039;-71
2022/03/02 10:50:25;;;;;;;3.13;2.17;;;;;;;;;;4993674;28;20031;-71
2022/03/02 10:52:54;;;;;;;3.23;2.53;;;;;;;;;;4993968;28;20046;-72
2022/03/02 10:55:22;;;;;;;2.90;2.28;;;;;;;;;;4993819;28;20042;-72
2022/03/02 10:57:50;;;;;;;6.55;2.53;;;;;;;;;;4993593;28;20524;-72
2022/03/02 11:00:20;;;;;;;7.55;2.75;;;;;;;;;;4976564;28;20277;-72
2022/03/02 11:02:50;;;;;;;2.20;2.00;;;;;;;;;;4993953;28;20050;-72
2022/03/02 11:05:19;;;;;;;2.47;2.22;;;;;;;;;;4993531;28;20061;-72
2022/03/02 11:07:46;;;;;;;2.88;2.00;;;;;;;;;;4993487;28;20042;-73
2022/03/02 11:10:16;;;;;;;3.20;2.20;;;;;;;;;;4993259;28;20046;-72
2022/03/02 11:12:46;;;;;;;4.88;2.30;;;;;;;;;;4993991;28;20105;-71
2022/03/02 11:15:15;;;;;;;3.88;2.28;;;;;;;;;;4993273;28;20057;-72
2022/03/02 11:17:59;;;;;;;2.58;2.03;;;;;;;;;;4993383;28;20034;-72
2022/03/02 11:20:29;;;;;;;5.75;2.50;;;;;;;;;;4993147;28;20053;-73
2022/03/02 11:23:04;;;;;;;3.30;2.30;;;;;;;;;;4993680;28;20050;-72
2022/03/02 11:25:44;;;;;;;4.65;2.38;;;;;;;;;;4992878;28;20072;-72
2022/03/02 11:28:20;;;;;;;2.78;2.00;;;;;;;;;;4993715;28;20038;-73
2022/03/02 11:30:48;;;;;;;3.47;2.20;;;;;;;;;;4992872;28;20049;-73
2022/03/02 11:33:16;;;;;;;2.85;2.13;;;;;;;;;;4993268;28;20042;-71
2022/03/02 11:35:46;;;;;;;3.75;2.30;;;;;;;;;;4993351;28;20125;-72
2022/03/02 11:38:18;;;;;;;6.10;2.42;;;;;;;;;;4993009;28;20046;-71
2022/03/02 11:40:48;;;;;;;7.90;2.70;;;;;;;;;;4993034;28;20039;-73
2022/03/02 11:43:25;;;;;;;2.80;2.15;;;;;;;;;;4992484;28;20051;-72
2022/03/02 11:46:00;;;;;;;2.67;2.00;;;;;;;;;;4992765;28;20039;-72
2022/03/02 11:48:39;;;;;;;2.97;2.28;;;;;;;;;;4992884;28;20062;-72
2022/03/02 11:51:09;;;;;;;3.63;2.38;;;;;;;;;;4992428;28;20074;-71
2022/03/02 11:53:39;;;;;;;3.70;2.25;;;;;;;;;;4975015;28;20045;-73
2022/03/02 11:56:07;;;;;;;4.50;1.95;;;;;;;;;;4993138;28;20101;-73
2022/03/02 11:58:54;;;;;;;5.35;2.30;;;;;;;;;;4992629;28;20057;-73
2022/03/02 12:01:54;;;;;;;2.30;2.00;;;;;;;;;;4975292;28;20042;-73
2022/03/02 12:04:31;;;;;;;5.35;2.15;;;;;;;;;;4993019;28;20138;-72
2022/03/02 12:07:02;;;;;;;4.20;2.30;;;;;;;;;;4975693;28;20039;-72
2022/03/02 12:09:31;;;;;;;2.20;1.90;;;;;;;;;;4992475;28;20402;-72
2022/03/02 12:12:10;;;;;;;2.25;2.00;;;;;;;;;;4975204;28;20043;-72
2022/03/02 12:14:41;;;;;;;5.53;2.15;;;;;;;;;;4992551;28;20047;-72
2022/03/02 12:17:13;;;;;;;2.90;2.10;;;;;;;;;;4992751;28;20046;-73
2022/03/02 12:19:40;;;;;;;4.85;2.25;;;;;;;;;;4992748;28;20371;-73
2022/03/02 12:22:10;;;;;;;2.47;1.98;;;;;;;;;;4992488;28;20494;-72
2022/03/02 12:24:38;;;;;;;2.92;2.25;;;;;;;;;;4992954;28;20135;-74
2022/03/02 12:27:11;;;;;;;5.30;2.53;;;;;;;;;;4992741;28;20402;-72
2022/03/02 12:29:42;;;;;;;4.45;2.03;;;;;;;;;;4991810;28;20414;-74
2022/03/02 12:32:17;;;;;;;3.10;2.00;;;;;;;;;;4991182;28;20054;-72
2022/03/02 12:34:51;;;;;;;4.07;2.10;;;;;;;;;;4992315;28;20371;-73
2022/03/02 12:37:22;;;;;;;4.38;2.20;;;;;;;;;;4995726;28;20129;-73
2022/03/02 12:39:51;;;;;;;2.67;2.10;;;;;;;;;;4995925;28;20042;-74
2022/03/02 12:42:19;;;;;;;5.10;2.30;;;;;;;;;;4995522;28;20054;-72
2022/03/02 12:44:51;;;;;;;3.88;2.40;;;;;;;;;;4975951;28;20047;-73
2022/03/02 12:47:21;;;;;;;3.03;2.22;;;;;;;;;;4995436;28;20045;-72
2022/03/02 12:49:50;;;;;;;5.18;2.28;;;;;;;;;;4976391;28;20521;-72
2022/03/02 12:52:21;;;;;;;4.43;2.40;;;;;;;;;;4995730;28;20037;-72
2022/03/02 12:54:56;;;;;;;3.55;2.30;;;;;;;;;;5007693;28;20045;-73
2022/03/02 12:57:25;;;;;;;8.57;5.13;;;;;;;;;;4995831;28;20397;-73
2022/03/02 12:59:53;;;;;;;6.40;3.15;;;;;;;;;;4994789;28;20494;-72
2022/03/02 13:02:23;;;;;;;3.63;2.30;;;;;;;;;;4995240;28;20038;-72
2022/03/02 13:04:51;;;;;;;3.40;2.25;;;;;;;;;;4995373;28;20049;-72
2022/03/02 13:07:37;;;;;;;8.80;2.58;;;;;;;;;;4994995;28;20057;-73
2022/03/02 13:10:12;;;;;;;4.93;2.50;;;;;;;;;;5007746;28;20457;-73
2022/03/02 13:12:46;;;;;;;5.03;2.50;;;;;;;;;;4994969;28;20054;-73
2022/03/02 13:15:32;;;;;;;4.50;2.22;;;;;;;;;;4995497;28;20038;-73
2022/03/02 13:18:09;;;;;;;5.18;2.88;;;;;;;;;;4994573;28;20393;-73
2022/03/02 13:20:44;;;;;;;3.13;2.38;;;;;;;;;;4994315;28;20512;-72
2022/03/02 13:23:16;;;;;;;4.28;2.30;;;;;;;;;;4995693;28;20045;-72
2022/03/02 13:26:11;;;;;;;4.87;2.00;;;;;;;;;;4995885;28;20072;-72
2022/03/02 13:29:01;;;;;;;3.85;2.00;;;;;;;;;;4995525;28;20465;-73
2022/03/02 13:31:29;;;;;;;3.20;2.30;;;;;;;;;;4977798;28;20050;-72
2022/03/02 13:33:56;;;;;;;3.90;2.35;;;;;;;;;;4995590;28;20497;-73
2022/03/02 13:36:36;;;;;;;2.22;2.03;;;;;;;;;;4995580;28;20042;-73
2022/03/02 13:39:12;;;;;;;4.15;2.10;;;;;;;;;;4995367;28;20035;-72
2022/03/02 13:41:41;;;;;;;5.13;2.25;;;;;;;;;;4994551;28;20474;-72
2022/03/02 13:44:21;;;;;;;4.25;2.05;;;;;;;;;;4973159;28;20049;-73
2022/03/02 13:47:07;;;;;;;2.00;1.70;;;;;;;;;;4986018;28;20035;-75
2022/03/02 13:52:43;;;;;;;2.08;1.85;;;;;;;;;;4992709;28;20042;-72
2022/03/02 13:55:10;;;;;;;4.05;1.90;;;;;;;;;;4985960;28;20049;-72
2022/03/02 13:58:19;;;;;;;2.33;2.10;;;;;;;;;;4982997;28;20077;-74
2022/03/02 14:00:47;;;;;;;2.13;1.90;;;;;;;;;;4994641;28;20064;-72
2022/03/02 14:03:33;;;;;;;2.70;2.15;;;;;;;;;;4992894;28;20042;-72
2022/03/02 14:06:04;;;;;;;4.85;2.10;;;;;;;;;;4993473;28;20217;-75
2022/03/02 14:08:41;;;;;;;3.08;2.00;;;;;;;;;;4993143;28;20080;-71
2022/03/02 14:11:10;;;;;;;3.60;2.00;;;;;;;;;;4974630;28;20047;-73
2022/03/02 14:13:38;;;;;;;8.73;2.28;;;;;;;;;;4974737;28;20133;-72
2022/03/02 14:16:08;;;;;;;2.47;2.08;;;;;;;;;;4972168;28;20049;-73
2022/03/02 14:18:35;;;;;;;4.78;2.30;;;;;;;;;;4974651;28;20074;-73
2022/03/02 14:21:11;;;;;;;5.28;2.33;;;;;;;;;;4974546;28;20050;-73
2022/03/02 14:23:49;;;;;;;2.28;1.65;;;;;;;;;;4974783;28;20057;-71
2022/03/02 14:26:20;;;;;;;2.97;2.00;;;;;;;;;;4974559;28;20383;-73
2022/03/02 14:28:50;;;;;;;2.67;2.10;;;;;;;;;;4974039;28;20047;-72
2022/03/02 14:31:19;;;;;;;2.75;2.05;;;;;;;;;;4974012;28;20045;-73
2022/03/02 14:34:06;;;;;;;2.55;2.00;;;;;;;;;;4957354;28;20050;-72
2022/03/02 14:36:33;;;;;;;6.03;2.10;;;;;;;;;;4974617;28;20054;-72
2022/03/02 14:39:02;;;;;;;2.42;2.10;;;;;;;;;;4989087;28;20046;-72
2022/03/02 14:41:30;;;;;;;9.32;2.40;;;;;;;;;;4993327;28;20042;-73
2022/03/02 14:44:00;;;;;;;5.03;1.98;;;;;;;;;;4993761;28;20110;-73
2022/03/02 14:46:35;;;;;;;3.53;2.60;;;;;;;;;;4992503;28;20732;-72
2022/03/02 14:49:06;;;;;;;7.20;3.67;;;;;;;;;;4991268;28;20045;-72
2022/03/02 14:51:34;;;;;;;8.88;4.25;;;;;;;;;;4997252;28;20034;-73
2022/03/02 14:54:01;;;;;;;7.57;3.90;;;;;;;;;;4971904;28;20042;-74
2022/03/02 14:56:32;;;;;;;4.90;2.95;;;;;;;;;;4968829;28;20038;-73
2022/03/02 14:59:01;;;;;;;3.47;2.28;;;;;;;;;;4991720;28;20038;-70
2022/03/02 15:01:32;;;;;;;4.53;2.55;;;;;;;;;;4975739;28;20042;-72
2022/03/02 15:04:04;;;;;;;2.50;2.30;;;;;;;;;;4992970;28;20054;-70
2022/03/02 15:06:33;;;;;;;4.63;2.70;;;;;;;;;;4990707;28;20046;-71